Time;durP1;ratioP1;P1;durP2;ratioP2;P2;SDS_P1;SDS_P2;PMS_P1;PMS_P2;Temp;Humidity;BMP_temperature;BMP_pressure;BME280_temperature;BME280_humidity;BME280_pressure;Samples;Min_cycle;Max_cycle;Signal;HPM_P1;HPM_P2
2023/10/08 00:00:38;;;;;;;15.93;15.02;;;;;;;;;;4998953;28;20045;-67
2023/10/08 00:02:45;;;;;;;16.90;15.90;;;;;;;;;;5002447;28;20201;-67
2023/10/08 00:05:10;;;;;;;16.27;15.27;;;;;;;;;;4999833;28;20474;-66
2023/10/08 00:07:35;;;;;;;16.92;15.93;;;;;;;;;;4984813;28;20040;-67
2023/10/08 00:10:02;;;;;;;16.92;15.52;;;;;;;;;;5000203;28;20034;-67
2023/10/08 00:12:28;;;;;;;16.17;15.27;;;;;;;;;;5002435;28;20032;-67
2023/10/08 00:14:54;;;;;;;15.88;14.98;;;;;;;;;;5003163;28;20034;-67
2023/10/08 00:17:20;;;;;;;17.25;16.25;;;;;;;;;;5001780;28;20048;-67
2023/10/08 00:19:52;;;;;;;17.17;16.17;;;;;;;;;;5004326;28;20041;-65
2023/10/08 00:22:18;;;;;;;17.65;16.65;;;;;;;;;;5003648;28;20656;-65
2023/10/08 00:24:43;;;;;;;16.30;15.20;;;;;;;;;;5005101;28;20546;-66
2023/10/08 00:27:09;;;;;;;15.88;14.98;;;;;;;;;;5001814;28;20042;-65
2023/10/08 00:29:38;;;;;;;15.23;14.32;;;;;;;;;;4986724;28;20042;-66
2023/10/08 00:32:11;;;;;;;16.27;15.23;;;;;;;;;;5000122;28;20474;-64
2023/10/08 00:34:41;;;;;;;15.98;14.90;;;;;;;;;;5003022;28;20514;-65
2023/10/08 00:37:09;;;;;;;16.05;15.15;;;;;;;;;;4999291;28;20041;-66
2023/10/08 00:39:37;;;;;;;16.60;15.60;;;;;;;;;;5003197;28;20108;-65
2023/10/08 00:42:04;;;;;;;16.00;15.00;;;;;;;;;;5000914;28;20026;-66
2023/10/08 00:44:30;;;;;;;16.23;15.32;;;;;;;;;;5002028;28;20045;-66
2023/10/08 00:46:56;;;;;;;16.60;15.55;;;;;;;;;;5001419;28;20042;-66
2023/10/08 00:52:04;;;;;;;16.73;15.73;;;;;;;;;;5003659;28;20080;-65
2023/10/08 00:54:32;;;;;;;15.68;14.77;;;;;;;;;;5000953;28;20034;-65
2023/10/08 00:57:04;;;;;;;16.75;15.38;;;;;;;;;;5001557;28;20707;-65
2023/10/08 00:59:45;;;;;;;16.45;15.48;;;;;;;;;;5003702;28;20060;-65
2023/10/08 01:02:15;;;;;;;17.75;16.65;;;;;;;;;;5002848;28;20057;-66
2023/10/08 01:04:43;;;;;;;15.68;14.70;;;;;;;;;;5000095;28;20034;-67
2023/10/08 01:07:15;;;;;;;16.80;15.80;;;;;;;;;;4984830;28;20571;-67
2023/10/08 01:09:50;;;;;;;16.48;15.57;;;;;;;;;;4998601;28;20049;-67
2023/10/08 01:15:07;;;;;;;15.68;14.68;;;;;;;;;;5001376;28;20092;-67
2023/10/08 01:17:42;;;;;;;17.60;16.60;;;;;;;;;;5005832;28;20490;-67
2023/10/08 01:23:09;;;;;;;15.50;14.60;;;;;;;;;;4970985;28;20058;-68
2023/10/08 01:25:36;;;;;;;17.73;16.52;;;;;;;;;;5008213;28;20038;-67
2023/10/08 01:28:08;;;;;;;15.85;14.95;;;;;;;;;;5005431;28;20045;-68
2023/10/08 01:30:37;;;;;;;16.52;15.30;;;;;;;;;;5006280;28;20045;-68
2023/10/08 01:33:02;;;;;;;17.15;15.75;;;;;;;;;;5000725;28;20387;-68
2023/10/08 01:35:31;;;;;;;17.10;16.10;;;;;;;;;;5004691;28;20038;-68
2023/10/08 01:37:59;;;;;;;16.95;15.75;;;;;;;;;;5005015;28;20038;-67
2023/10/08 01:40:24;;;;;;;16.92;15.82;;;;;;;;;;5006221;28;20034;-68
2023/10/08 01:42:53;;;;;;;16.50;15.50;;;;;;;;;;5004038;28;20045;-69
2023/10/08 01:45:18;;;;;;;16.73;15.80;;;;;;;;;;5002757;28;20037;-68
2023/10/08 01:47:45;;;;;;;16.60;15.60;;;;;;;;;;5004421;28;20088;-69
2023/10/08 01:50:21;;;;;;;16.38;15.43;;;;;;;;;;5005484;28;20061;-68
2023/10/08 01:52:51;;;;;;;15.82;14.93;;;;;;;;;;5005970;28;20045;-69
2023/10/08 01:55:18;;;;;;;19.15;15.80;;;;;;;;;;4989415;28;20095;-67
2023/10/08 01:57:45;;;;;;;16.90;15.55;;;;;;;;;;5006671;28;20438;-67
2023/10/08 02:00:14;;;;;;;17.42;16.33;;;;;;;;;;5003920;28;20867;-66
2023/10/08 02:02:40;;;;;;;17.30;16.30;;;;;;;;;;5004028;28;20120;-67
2023/10/08 02:05:06;;;;;;;16.60;15.57;;;;;;;;;;5004063;28;20034;-65
2023/10/08 02:07:32;;;;;;;16.63;15.63;;;;;;;;;;5004349;28;20096;-66
2023/10/08 02:09:57;;;;;;;16.35;15.35;;;;;;;;;;5002333;28;20034;-66
2023/10/08 02:12:23;;;;;;;17.95;16.27;;;;;;;;;;4983092;28;20042;-66
2023/10/08 02:14:48;;;;;;;16.77;15.77;;;;;;;;;;5005161;28;20046;-66
2023/10/08 02:17:14;;;;;;;16.67;15.57;;;;;;;;;;5005688;28;20663;-66
2023/10/08 02:19:41;;;;;;;16.75;15.75;;;;;;;;;;5002326;28;20775;-66
2023/10/08 02:22:09;;;;;;;17.15;15.82;;;;;;;;;;5000467;28;20031;-66
2023/10/08 02:24:36;;;;;;;17.45;16.45;;;;;;;;;;5000007;28;20038;-66
2023/10/08 02:27:01;;;;;;;17.40;16.20;;;;;;;;;;5003168;28;20108;-67
2023/10/08 02:29:29;;;;;;;16.80;15.63;;;;;;;;;;5001168;28;20042;-67
2023/10/08 02:31:56;;;;;;;16.30;15.40;;;;;;;;;;4984746;28;20097;-66
2023/10/08 02:34:21;;;;;;;17.20;16.05;;;;;;;;;;5004100;28;20593;-67
2023/10/08 02:36:47;;;;;;;17.23;16.27;;;;;;;;;;5004216;28;20033;-66
2023/10/08 02:39:24;;;;;;;16.48;15.48;;;;;;;;;;5003638;28;20033;-67
2023/10/08 02:41:50;;;;;;;15.45;14.50;;;;;;;;;;5002538;28;20038;-67
2023/10/08 02:44:16;;;;;;;17.25;16.25;;;;;;;;;;4999188;28;20053;-67
2023/10/08 02:46:49;;;;;;;17.30;16.30;;;;;;;;;;5004451;28;20030;-67
2023/10/08 02:49:25;;;;;;;18.55;17.30;;;;;;;;;;4982959;28;20636;-67
2023/10/08 02:51:53;;;;;;;18.73;17.70;;;;;;;;;;5002932;28;20033;-67
2023/10/08 02:54:31;;;;;;;18.83;17.77;;;;;;;;;;5001245;28;20527;-68
2023/10/08 02:56:58;;;;;;;18.70;17.65;;;;;;;;;;5007513;28;20100;-68
2023/10/08 02:59:29;;;;;;;20.70;19.35;;;;;;;;;;5003802;28;20037;-68
2023/10/08 03:01:56;;;;;;;20.30;19.17;;;;;;;;;;5001979;28;20137;-66
2023/10/08 03:04:22;;;;;;;21.52;20.13;;;;;;;;;;5004741;28;20042;-67
2023/10/08 03:06:52;;;;;;;20.27;19.13;;;;;;;;;;5002165;28;20030;-66
2023/10/08 03:09:24;;;;;;;21.23;20.00;;;;;;;;;;5004289;28;20037;-67
2023/10/08 03:11:50;;;;;;;23.60;21.92;;;;;;;;;;5004962;28;20487;-67
2023/10/08 03:14:23;;;;;;;23.17;21.88;;;;;;;;;;5004322;28;20038;-67
2023/10/08 03:16:53;;;;;;;23.45;22.10;;;;;;;;;;5002888;28;20038;-67
2023/10/08 03:19:19;;;;;;;23.80;22.50;;;;;;;;;;4987053;28;20033;-67
2023/10/08 03:21:56;;;;;;;25.40;24.00;;;;;;;;;;5001599;28;20112;-67
2023/10/08 03:27:06;;;;;;;23.65;22.35;;;;;;;;;;5005785;28;20034;-67
2023/10/08 03:29:41;;;;;;;25.17;23.77;;;;;;;;;;5004446;28;20034;-67
2023/10/08 03:32:17;;;;;;;25.27;23.75;;;;;;;;;;5004461;28;20088;-67
2023/10/08 03:34:49;;;;;;;25.33;23.92;;;;;;;;;;5001020;28;20127;-67
2023/10/08 03:37:29;;;;;;;25.65;24.13;;;;;;;;;;5003098;28;20092;-67
2023/10/08 03:40:01;;;;;;;25.45;24.08;;;;;;;;;;5002173;28;20068;-67
2023/10/08 03:42:33;;;;;;;25.88;24.40;;;;;;;;;;5000146;28;20033;-66
2023/10/08 03:45:09;;;;;;;25.30;23.83;;;;;;;;;;5003409;28;20379;-67
2023/10/08 03:47:37;;;;;;;25.50;24.13;;;;;;;;;;5001999;28;20026;-66
2023/10/08 03:50:05;;;;;;;26.70;25.20;;;;;;;;;;5003816;28;20048;-67
2023/10/08 03:52:31;;;;;;;28.10;26.45;;;;;;;;;;4999763;28;20046;-67
2023/10/08 03:55:20;;;;;;;28.67;27.13;;;;;;;;;;4982698;28;20049;-67
2023/10/08 03:57:41;;;;;;;27.23;25.77;;;;;;;;;;4998176;28;20048;-67
2023/10/08 04:00:14;;;;;;;27.73;26.20;;;;;;;;;;5000216;28;20352;-67
2023/10/08 04:02:40;;;;;;;28.17;26.58;;;;;;;;;;5002118;28;20359;-67
2023/10/08 04:05:19;;;;;;;29.05;27.48;;;;;;;;;;4999409;28;20038;-67
2023/10/08 04:08:16;;;;;;;27.00;25.55;;;;;;;;;;5004410;28;20105;-67
2023/10/08 04:10:39;;;;;;;29.02;27.50;;;;;;;;;;5002506;28;20161;-66
2023/10/08 04:13:14;;;;;;;32.05;30.40;;;;;;;;;;5002702;28;20274;-67
2023/10/08 04:15:43;;;;;;;29.23;27.67;;;;;;;;;;5002605;28;20096;-65
2023/10/08 04:18:10;;;;;;;30.88;29.25;;;;;;;;;;5000896;28;20025;-66
2023/10/08 04:20:39;;;;;;;34.47;32.40;;;;;;;;;;5001233;28;20046;-65
2023/10/08 04:23:13;;;;;;;35.50;33.58;;;;;;;;;;5003195;28;20092;-66
2023/10/08 04:25:39;;;;;;;35.53;33.42;;;;;;;;;;5000043;28;20041;-67
2023/10/08 04:28:06;;;;;;;37.45;35.47;;;;;;;;;;5002195;28;20037;-67
2023/10/08 04:30:35;;;;;;;34.20;32.40;;;;;;;;;;5001666;28;20416;-66
2023/10/08 04:33:08;;;;;;;33.50;31.67;;;;;;;;;;4999215;28;20653;-67
2023/10/08 04:35:47;;;;;;;31.67;30.02;;;;;;;;;;5001675;28;20041;-66
2023/10/08 04:38:21;;;;;;;33.22;31.45;;;;;;;;;;4999600;28;20022;-66
2023/10/08 04:40:51;;;;;;;32.95;31.15;;;;;;;;;;5003273;28;20431;-66
2023/10/08 04:43:27;;;;;;;33.00;31.23;;;;;;;;;;5002016;28;20057;-66
2023/10/08 04:46:04;;;;;;;32.50;30.60;;;;;;;;;;5001073;28;20030;-67
2023/10/08 04:48:32;;;;;;;30.65;29.02;;;;;;;;;;5000091;28;20049;-67
2023/10/08 04:50:59;;;;;;;31.48;29.83;;;;;;;;;;5007386;28;20112;-66
2023/10/08 04:53:40;;;;;;;32.05;30.35;;;;;;;;;;5006412;28;20176;-67
2023/10/08 04:56:13;;;;;;;30.05;28.45;;;;;;;;;;5007227;28;20042;-67
2023/10/08 04:58:41;;;;;;;31.67;29.98;;;;;;;;;;5005269;28;20412;-66
2023/10/08 05:04:07;;;;;;;31.50;29.77;;;;;;;;;;5006004;28;20046;-66
2023/10/08 05:09:38;;;;;;;29.75;28.20;;;;;;;;;;5003562;28;20653;-66
2023/10/08 05:14:55;;;;;;;30.10;28.40;;;;;;;;;;5004758;28;20037;-66
2023/10/08 05:17:32;;;;;;;30.60;28.85;;;;;;;;;;5005473;28;20046;-66
2023/10/08 05:27:57;;;;;;;30.88;29.23;;;;;;;;;;4984628;28;20034;-65
2023/10/08 05:41:27;;;;;;;34.00;32.15;;;;;;;;;;4979750;28;20049;-65
2023/10/08 05:44:13;;;;;;;35.80;33.80;;;;;;;;;;5003357;28;20128;-65
2023/10/08 05:46:46;;;;;;;34.17;32.33;;;;;;;;;;4973197;28;20037;-66
2023/10/08 05:57:24;;;;;;;32.67;30.90;;;;;;;;;;5004761;28;20030;-66
2023/10/08 06:00:17;;;;;;;31.35;29.63;;;;;;;;;;5002203;28;20471;-67
2023/10/08 06:07:56;;;;;;;31.15;29.48;;;;;;;;;;5005027;28;20305;-66
2023/10/08 06:13:06;;;;;;;30.23;28.60;;;;;;;;;;5000642;28;20033;-67
2023/10/08 06:18:18;;;;;;;25.48;24.05;;;;;;;;;;4999240;28;20219;-67
2023/10/08 06:20:43;;;;;;;27.90;26.42;;;;;;;;;;4986921;28;20088;-67
2023/10/08 06:23:17;;;;;;;27.52;26.08;;;;;;;;;;4988727;28;20041;-67
2023/10/08 06:25:45;;;;;;;27.50;25.95;;;;;;;;;;5005177;28;20033;-66
2023/10/08 06:28:18;;;;;;;27.35;25.88;;;;;;;;;;4989516;28;20096;-66
2023/10/08 06:30:44;;;;;;;25.77;24.35;;;;;;;;;;5004351;28;20038;-66
2023/10/08 06:33:10;;;;;;;25.60;24.20;;;;;;;;;;5001793;28;20101;-66
2023/10/08 06:35:36;;;;;;;27.17;25.70;;;;;;;;;;5003654;28;20030;-67
2023/10/08 06:38:09;;;;;;;24.40;23.08;;;;;;;;;;4984818;28;20033;-66
2023/10/08 06:43:21;;;;;;;22.80;21.55;;;;;;;;;;4999859;28;20045;-67
2023/10/08 06:45:46;;;;;;;24.58;23.25;;;;;;;;;;5002126;28;20404;-67
2023/10/08 06:48:20;;;;;;;28.45;26.92;;;;;;;;;;5005906;28;20368;-67
2023/10/08 06:50:46;;;;;;;23.70;22.33;;;;;;;;;;5002208;28;20037;-67
2023/10/08 06:53:14;;;;;;;25.20;23.85;;;;;;;;;;5002671;28;20038;-66
2023/10/08 06:55:41;;;;;;;24.10;22.73;;;;;;;;;;5004810;28;20038;-67
2023/10/08 06:58:11;;;;;;;22.58;21.27;;;;;;;;;;5004100;28;20033;-67
2023/10/08 07:00:46;;;;;;;19.90;18.80;;;;;;;;;;5004738;28;20042;-67
2023/10/08 07:03:15;;;;;;;22.13;20.92;;;;;;;;;;5002501;28;20089;-67
2023/10/08 07:05:44;;;;;;;25.10;23.73;;;;;;;;;;5004546;28;20126;-67
2023/10/08 07:08:13;;;;;;;21.25;19.98;;;;;;;;;;5004197;28;20379;-67
2023/10/08 07:10:41;;;;;;;17.30;16.10;;;;;;;;;;5001187;28;20087;-67
2023/10/08 07:13:07;;;;;;;18.15;17.05;;;;;;;;;;5002623;28;20068;-67
2023/10/08 07:15:38;;;;;;;16.98;15.88;;;;;;;;;;5002820;28;20041;-66
2023/10/08 07:18:09;;;;;;;17.40;16.20;;;;;;;;;;5003691;28;20250;-67
2023/10/08 07:20:38;;;;;;;17.38;16.27;;;;;;;;;;5000278;28;20037;-66
2023/10/08 07:23:29;;;;;;;17.42;16.33;;;;;;;;;;5001732;28;20104;-67
2023/10/08 07:26:11;;;;;;;17.05;16.05;;;;;;;;;;4984394;28;20037;-66
2023/10/08 07:28:41;;;;;;;17.08;16.08;;;;;;;;;;5004659;28;20045;-67
2023/10/08 07:31:20;;;;;;;16.80;15.80;;;;;;;;;;5000831;28;20057;-66
2023/10/08 07:33:48;;;;;;;16.10;15.18;;;;;;;;;;5003030;28;20026;-64
2023/10/08 07:36:18;;;;;;;17.58;16.58;;;;;;;;;;5002511;28;20045;-65
2023/10/08 07:38:44;;;;;;;17.45;16.40;;;;;;;;;;4987644;28;20114;-64
2023/10/08 07:41:14;;;;;;;16.75;15.75;;;;;;;;;;5002542;28;20136;-64
2023/10/08 07:43:43;;;;;;;16.23;15.23;;;;;;;;;;5002772;28;20451;-65
2023/10/08 07:46:10;;;;;;;16.70;15.70;;;;;;;;;;5003167;28;20424;-65
2023/10/08 07:48:36;;;;;;;17.58;16.58;;;;;;;;;;5001633;28;20037;-64
2023/10/08 07:51:02;;;;;;;16.77;15.80;;;;;;;;;;4986423;28;20455;-64
2023/10/08 07:53:37;;;;;;;19.50;18.17;;;;;;;;;;4999997;28;20033;-64
2023/10/08 07:56:06;;;;;;;17.88;16.50;;;;;;;;;;5000241;28;20045;-65
2023/10/08 07:58:34;;;;;;;17.77;16.45;;;;;;;;;;4999900;28;20045;-64
2023/10/08 08:01:06;;;;;;;18.05;17.05;;;;;;;;;;5002679;28;20030;-64
2023/10/08 08:03:34;;;;;;;15.15;14.32;;;;;;;;;;5001605;28;20087;-64
2023/10/08 08:06:00;;;;;;;16.48;15.57;;;;;;;;;;5000123;28;20022;-64
2023/10/08 08:08:27;;;;;;;18.63;17.52;;;;;;;;;;5004631;28;20051;-64
2023/10/08 08:10:57;;;;;;;17.55;16.35;;;;;;;;;;5002282;28;20618;-64
2023/10/08 08:13:27;;;;;;;17.50;16.50;;;;;;;;;;5003093;28;20033;-64
2023/10/08 08:15:58;;;;;;;17.17;16.08;;;;;;;;;;5001670;28;20092;-67
2023/10/08 08:18:32;;;;;;;;;;;;;;;;;;5002583;28;20030;-67
2023/10/08 08:21:01;;;;;;;16.33;15.40;;;;;;;;;;4986372;28;20286;-66
2023/10/08 08:23:31;;;;;;;16.65;15.65;;;;;;;;;;5004001;28;20037;-66
2023/10/08 08:26:11;;;;;;;16.05;15.15;;;;;;;;;;4977699;28;20068;-66
2023/10/08 08:28:38;;;;;;;15.80;14.90;;;;;;;;;;4999593;28;20509;-67
2023/10/08 08:31:13;;;;;;;16.08;15.18;;;;;;;;;;4984140;28;20066;-67
2023/10/08 08:34:03;;;;;;;16.80;15.73;;;;;;;;;;5003798;28;20125;-67
2023/10/08 08:36:28;;;;;;;17.85;16.75;;;;;;;;;;5000812;28;20046;-67
2023/10/08 08:38:54;;;;;;;16.63;15.23;;;;;;;;;;5002552;28;20467;-68
2023/10/08 08:41:22;;;;;;;18.25;17.20;;;;;;;;;;4986177;28;20460;-68
2023/10/08 08:43:56;;;;;;;17.38;16.38;;;;;;;;;;4999725;28;20172;-68
2023/10/08 08:46:35;;;;;;;17.55;16.50;;;;;;;;;;5002941;28;20056;-68
2023/10/08 08:49:04;;;;;;;16.98;15.98;;;;;;;;;;5002567;28;20033;-68
2023/10/08 08:51:30;;;;;;;16.80;15.80;;;;;;;;;;4986079;28;20034;-66
2023/10/08 08:53:56;;;;;;;24.75;22.98;;;;;;;;;;5001127;28;20049;-66
2023/10/08 08:56:22;;;;;;;17.02;15.93;;;;;;;;;;4987539;28;20026;-65
2023/10/08 08:58:49;;;;;;;18.20;16.88;;;;;;;;;;5002121;28;20034;-66
2023/10/08 09:01:17;;;;;;;17.38;16.38;;;;;;;;;;5002358;28;20418;-66
2023/10/08 09:03:43;;;;;;;17.58;16.42;;;;;;;;;;4985835;28;20369;-66
2023/10/08 09:06:08;;;;;;;17.85;16.85;;;;;;;;;;5002830;28;20037;-66
2023/10/08 09:08:36;;;;;;;19.20;17.98;;;;;;;;;;5003026;28;21306;-66
2023/10/08 09:11:04;;;;;;;19.48;18.25;;;;;;;;;;4982600;28;20030;-66
2023/10/08 09:13:31;;;;;;;18.90;17.63;;;;;;;;;;4999210;28;20056;-67
2023/10/08 09:16:11;;;;;;;19.77;18.58;;;;;;;;;;5000319;28;20089;-66
2023/10/08 09:18:36;;;;;;;20.33;19.13;;;;;;;;;;5001836;28;20137;-67
2023/10/08 09:21:18;;;;;;;22.45;21.13;;;;;;;;;;5002426;28;20041;-67
2023/10/08 09:23:48;;;;;;;21.73;20.35;;;;;;;;;;4986312;28;20026;-67
2023/10/08 09:26:16;;;;;;;23.77;22.48;;;;;;;;;;5000203;28;20034;-66
2023/10/08 09:28:46;;;;;;;23.92;22.60;;;;;;;;;;5000463;28;20123;-68
2023/10/08 09:31:13;;;;;;;24.00;22.67;;;;;;;;;;4970154;28;20407;-65
2023/10/08 09:33:40;;;;;;;25.25;23.80;;;;;;;;;;5001468;28;20042;-65
2023/10/08 09:36:10;;;;;;;26.20;24.77;;;;;;;;;;4986407;28;20141;-66
2023/10/08 09:38:37;;;;;;;24.25;22.90;;;;;;;;;;5002897;28;20042;-66
2023/10/08 09:41:03;;;;;;;24.27;22.88;;;;;;;;;;5005272;28;20080;-66
2023/10/08 09:43:29;;;;;;;27.15;25.65;;;;;;;;;;5006113;28;20100;-66
2023/10/08 09:46:08;;;;;;;28.15;26.60;;;;;;;;;;5004950;28;20478;-67
2023/10/08 09:48:37;;;;;;;26.70;25.20;;;;;;;;;;5005092;28;20041;-66
2023/10/08 09:51:06;;;;;;;29.77;27.92;;;;;;;;;;5002908;28;20026;-66
2023/10/08 09:53:51;;;;;;;25.98;24.48;;;;;;;;;;5005750;28;20026;-65
2023/10/08 09:56:19;;;;;;;25.52;24.08;;;;;;;;;;5005899;28;20053;-64
2023/10/08 09:58:49;;;;;;;24.25;22.58;;;;;;;;;;5003982;28;20045;-66
2023/10/08 10:01:17;;;;;;;26.85;25.45;;;;;;;;;;5005461;28;20467;-64
2023/10/08 10:03:44;;;;;;;25.38;23.98;;;;;;;;;;5006879;28;20069;-64
2023/10/08 10:06:15;;;;;;;24.88;23.48;;;;;;;;;;4983865;28;20487;-65
2023/10/08 10:08:42;;;;;;;25.50;24.15;;;;;;;;;;5002326;28;20057;-65
2023/10/08 10:11:08;;;;;;;26.38;24.98;;;;;;;;;;5000875;28;20022;-65
2023/10/08 10:13:47;;;;;;;23.33;22.00;;;;;;;;;;5003682;28;20029;-65
2023/10/08 10:16:17;;;;;;;23.50;22.20;;;;;;;;;;5003382;28;20042;-66
2023/10/08 10:18:49;;;;;;;25.10;23.52;;;;;;;;;;4988096;28;20038;-68
2023/10/08 10:21:15;;;;;;;23.92;22.42;;;;;;;;;;4986419;28;20360;-67
2023/10/08 10:23:53;;;;;;;22.30;20.73;;;;;;;;;;5005496;28;20025;-67
2023/10/08 10:26:33;;;;;;;21.23;20.00;;;;;;;;;;4986503;28;20100;-65
2023/10/08 10:29:11;;;;;;;22.65;21.38;;;;;;;;;;4985213;28;20076;-65
2023/10/08 10:31:47;;;;;;;22.20;20.27;;;;;;;;;;5002597;28;20042;-64
2023/10/08 10:34:15;;;;;;;22.38;20.73;;;;;;;;;;5003487;28;20176;-64
2023/10/08 10:36:42;;;;;;;21.60;20.27;;;;;;;;;;5005507;28;20030;-65
2023/10/08 10:42:06;;;;;;;20.95;19.75;;;;;;;;;;4985766;28;20053;-64
2023/10/08 10:44:33;;;;;;;21.20;20.00;;;;;;;;;;5008529;28;20052;-64
2023/10/08 10:52:32;;;;;;;25.77;24.38;;;;;;;;;;4986998;28;20556;-63
2023/10/08 10:55:22;;;;;;;20.55;19.38;;;;;;;;;;5004048;28;20483;-63
2023/10/08 10:57:56;;;;;;;23.20;21.92;;;;;;;;;;5004644;28;20505;-64
2023/10/08 11:03:15;;;;;;;22.25;21.05;;;;;;;;;;5003718;28;20521;-63
2023/10/08 11:05:47;;;;;;;19.67;18.58;;;;;;;;;;4986098;28;20470;-64
2023/10/08 11:08:14;;;;;;;21.40;20.20;;;;;;;;;;5006066;28;20487;-64
2023/10/08 11:10:51;;;;;;;20.70;19.50;;;;;;;;;;5001959;28;20590;-64
2023/10/08 11:13:19;;;;;;;21.33;20.15;;;;;;;;;;5004385;28;20034;-64
2023/10/08 11:15:54;;;;;;;21.27;20.02;;;;;;;;;;5004140;28;20466;-65
2023/10/08 11:18:21;;;;;;;22.05;20.77;;;;;;;;;;5002535;28;20033;-64
2023/10/08 11:20:53;;;;;;;27.42;25.95;;;;;;;;;;5002412;28;20048;-64
2023/10/08 11:23:36;;;;;;;30.00;28.40;;;;;;;;;;5005393;28;20445;-65
2023/10/08 11:26:05;;;;;;;37.80;35.78;;;;;;;;;;5002229;28;20455;-64
2023/10/08 11:28:35;;;;;;;31.60;29.95;;;;;;;;;;5001727;28;20042;-64
2023/10/08 11:31:08;;;;;;;33.03;31.30;;;;;;;;;;5000897;28;20053;-65
2023/10/08 11:33:38;;;;;;;33.90;32.08;;;;;;;;;;5004749;28;20064;-67
2023/10/08 11:36:18;;;;;;;;;;;;;;;;;;5003043;28;20038;-66
2023/10/08 11:38:47;;;;;;;30.85;29.23;;;;;;;;;;5003182;28;19917;-67
2023/10/08 11:41:21;;;;;;;32.93;30.93;;;;;;;;;;5001667;28;20451;-67
2023/10/08 11:43:59;;;;;;;34.45;32.65;;;;;;;;;;5002337;28;20076;-66
2023/10/08 11:46:38;;;;;;;26.27;24.88;;;;;;;;;;5003520;28;20483;-66
2023/10/08 11:49:07;;;;;;;26.05;24.60;;;;;;;;;;5001651;28;20026;-67
2023/10/08 11:51:34;;;;;;;34.05;32.17;;;;;;;;;;5000323;28;20060;-67
2023/10/08 11:54:00;;;;;;;22.13;20.83;;;;;;;;;;4986038;28;20355;-67
2023/10/08 11:56:28;;;;;;;36.17;34.28;;;;;;;;;;5002741;28;20042;-67
2023/10/08 11:58:56;;;;;;;29.70;27.65;;;;;;;;;;5002023;28;20068;-67
2023/10/08 12:01:23;;;;;;;36.00;34.05;;;;;;;;;;5001137;28;20034;-67
2023/10/08 12:03:50;;;;;;;24.88;23.50;;;;;;;;;;4987510;28;20056;-66
2023/10/08 12:06:18;;;;;;;23.75;22.45;;;;;;;;;;5002459;28;20029;-67
2023/10/08 12:08:46;;;;;;;27.05;25.65;;;;;;;;;;5003393;28;20041;-68
2023/10/08 12:11:15;;;;;;;32.75;30.95;;;;;;;;;;4983985;28;20061;-67
2023/10/08 12:13:44;;;;;;;32.97;30.05;;;;;;;;;;5004324;28;20076;-66
2023/10/08 12:16:18;;;;;;;26.40;24.90;;;;;;;;;;5001301;28;20551;-66
2023/10/08 12:18:55;;;;;;;31.02;29.33;;;;;;;;;;5002018;28;20041;-66
2023/10/08 12:21:21;;;;;;;33.90;32.13;;;;;;;;;;4999318;28;20037;-65
2023/10/08 12:23:49;;;;;;;62.60;59.40;;;;;;;;;;5003244;28;20092;-65
2023/10/08 12:26:15;;;;;;;39.45;37.25;;;;;;;;;;5001322;28;20033;-65
2023/10/08 12:28:45;;;;;;;45.03;42.72;;;;;;;;;;5003584;28;20116;-65
2023/10/08 12:31:12;;;;;;;35.45;33.55;;;;;;;;;;5003236;28;20125;-65
2023/10/08 12:33:37;;;;;;;72.18;68.47;;;;;;;;;;5001912;28;20030;-65
2023/10/08 12:36:12;;;;;;;82.72;78.63;;;;;;;;;;5004558;28;20052;-65
2023/10/08 12:38:39;;;;;;;78.43;74.40;;;;;;;;;;5002472;28;20487;-65
2023/10/08 12:41:13;;;;;;;67.97;64.53;;;;;;;;;;4999754;28;20037;-65
2023/10/08 12:43:45;;;;;;;84.28;79.68;;;;;;;;;;4982941;28;20040;-68
2023/10/08 12:46:17;;;;;;;69.10;65.60;;;;;;;;;;4999795;28;20074;-68
2023/10/08 12:48:44;;;;;;;72.43;68.82;;;;;;;;;;4998989;28;20034;-69
2023/10/08 12:51:11;;;;;;;59.40;56.30;;;;;;;;;;4983163;28;20040;-68
2023/10/08 12:53:37;;;;;;;53.72;50.97;;;;;;;;;;5000186;28;20043;-67
2023/10/08 12:56:06;;;;;;;50.47;47.85;;;;;;;;;;4999271;28;20038;-68
2023/10/08 12:58:41;;;;;;;71.05;67.32;;;;;;;;;;5001495;28;20050;-69
2023/10/08 13:01:09;;;;;;;76.60;72.70;;;;;;;;;;5000412;28;20060;-68
2023/10/08 13:03:41;;;;;;;77.35;73.50;;;;;;;;;;4986704;28;20383;-68
2023/10/08 13:06:14;;;;;;;72.15;68.28;;;;;;;;;;5000835;28;20877;-68
2023/10/08 13:08:40;;;;;;;77.70;73.82;;;;;;;;;;5001098;28;20026;-68
2023/10/08 13:11:06;;;;;;;38.15;36.15;;;;;;;;;;5001608;28;20040;-68
2023/10/08 13:13:33;;;;;;;71.43;67.75;;;;;;;;;;5005009;28;20030;-68
2023/10/08 13:16:02;;;;;;;63.38;60.10;;;;;;;;;;5005615;28;20046;-68
2023/10/08 13:18:28;;;;;;;73.18;69.50;;;;;;;;;;5006503;28;20527;-68
2023/10/08 13:20:54;;;;;;;52.72;50.00;;;;;;;;;;5004235;28;20149;-68
2023/10/08 13:23:23;;;;;;;46.85;44.45;;;;;;;;;;5006577;28;20484;-68
2023/10/08 13:25:53;;;;;;;59.85;56.85;;;;;;;;;;4987990;28;20423;-68
2023/10/08 13:28:21;;;;;;;60.00;56.95;;;;;;;;;;5003382;28;20273;-68
2023/10/08 13:30:47;;;;;;;45.40;43.00;;;;;;;;;;4983294;28;20032;-68
2023/10/08 13:33:12;;;;;;;61.17;58.00;;;;;;;;;;5005870;28;20045;-68
2023/10/08 13:35:38;;;;;;;34.40;32.63;;;;;;;;;;5005349;28;20680;-67
2023/10/08 13:38:09;;;;;;;48.65;46.10;;;;;;;;;;5005033;28;20042;-68
2023/10/08 13:40:39;;;;;;;40.65;38.55;;;;;;;;;;5006283;28;20056;-67
2023/10/08 13:43:05;;;;;;;63.28;60.08;;;;;;;;;;5001959;28;20046;-69
2023/10/08 13:45:33;;;;;;;37.05;35.08;;;;;;;;;;4984670;28;20471;-68
2023/10/08 13:48:01;;;;;;;64.85;61.55;;;;;;;;;;5005599;28;20325;-67
2023/10/08 13:50:30;;;;;;;49.13;46.58;;;;;;;;;;5005275;28;20053;-68
2023/10/08 13:52:55;;;;;;;66.03;62.72;;;;;;;;;;5004748;28;20038;-68
2023/10/08 13:55:25;;;;;;;39.47;37.40;;;;;;;;;;4988715;28;20056;-68
2023/10/08 13:57:54;;;;;;;60.08;57.00;;;;;;;;;;5002759;28;20101;-68
2023/10/08 14:00:25;;;;;;;63.75;60.38;;;;;;;;;;5006824;28;20029;-67
2023/10/08 14:02:52;;;;;;;77.28;73.30;;;;;;;;;;5002940;28;20104;-67
2023/10/08 14:05:23;;;;;;;66.32;63.00;;;;;;;;;;5006007;28;20030;-67
2023/10/08 14:07:50;;;;;;;81.72;77.70;;;;;;;;;;5005751;28;20459;-67
2023/10/08 14:10:18;;;;;;;78.75;74.65;;;;;;;;;;4987091;28;20044;-66
2023/10/08 14:12:49;;;;;;;83.10;78.80;;;;;;;;;;5003777;28;20026;-67
2023/10/08 14:15:16;;;;;;;71.22;67.63;;;;;;;;;;5004909;28;20120;-67
2023/10/08 14:17:44;;;;;;;77.40;73.50;;;;;;;;;;5002506;28;20651;-66
2023/10/08 14:20:13;;;;;;;78.07;74.07;;;;;;;;;;5003967;28;20061;-67
2023/10/08 14:22:40;;;;;;;50.83;48.22;;;;;;;;;;5003764;28;20092;-68
2023/10/08 14:25:11;;;;;;;66.30;62.83;;;;;;;;;;4986123;28;20030;-67
2023/10/08 14:27:43;;;;;;;70.45;66.93;;;;;;;;;;5007040;28;20030;-67
2023/10/08 14:30:20;;;;;;;50.08;47.47;;;;;;;;;;5003488;28;20026;-68
2023/10/08 14:32:46;;;;;;;38.83;36.83;;;;;;;;;;4987788;28;20029;-67
2023/10/08 14:43:31;;;;;;;35.58;33.67;;;;;;;;;;5004297;28;20053;-67
2023/10/08 14:45:57;;;;;;;51.78;49.15;;;;;;;;;;5002935;28;20065;-67
2023/10/08 14:48:23;;;;;;;66.50;63.08;;;;;;;;;;4988866;28;20037;-67
2023/10/08 14:50:49;;;;;;;66.15;62.85;;;;;;;;;;5004737;28;20045;-67
2023/10/08 14:53:15;;;;;;;65.00;61.70;;;;;;;;;;5004950;28;20100;-66
2023/10/08 14:55:40;;;;;;;44.83;42.42;;;;;;;;;;5006164;28;20030;-65
2023/10/08 14:58:10;;;;;;;50.03;46.90;;;;;;;;;;4987612;28;20057;-65
2023/10/08 15:00:37;;;;;;;40.10;37.97;;;;;;;;;;5003677;28;20037;-64
2023/10/08 15:03:03;;;;;;;52.72;49.65;;;;;;;;;;5001430;28;20038;-64
2023/10/08 15:05:30;;;;;;;62.83;59.55;;;;;;;;;;5004598;28;20034;-65
2023/10/08 15:07:56;;;;;;;44.53;42.13;;;;;;;;;;5004032;28;20038;-64
2023/10/08 15:10:21;;;;;;;39.95;37.85;;;;;;;;;;5003390;28;20507;-65
2023/10/08 15:12:47;;;;;;;46.08;43.72;;;;;;;;;;5002483;28;20491;-65
2023/10/08 15:15:12;;;;;;;53.97;51.22;;;;;;;;;;5002548;28;20022;-64
2023/10/08 15:17:43;;;;;;;46.53;43.95;;;;;;;;;;5003433;28;20109;-65
2023/10/08 15:20:14;;;;;;;53.40;50.65;;;;;;;;;;5003242;28;20029;-65
2023/10/08 15:22:42;;;;;;;42.60;40.28;;;;;;;;;;5005987;28;20034;-67
2023/10/08 15:25:10;;;;;;;37.03;35.03;;;;;;;;;;5004572;28;20041;-66
2023/10/08 15:27:39;;;;;;;31.77;30.08;;;;;;;;;;5004559;28;20041;-66
2023/10/08 15:30:07;;;;;;;41.20;38.28;;;;;;;;;;5003947;28;20105;-65
2023/10/08 15:32:32;;;;;;;31.92;30.20;;;;;;;;;;5001815;28;20029;-65
2023/10/08 15:34:58;;;;;;;31.30;29.50;;;;;;;;;;4986858;28;20045;-64
2023/10/08 15:37:23;;;;;;;30.52;28.77;;;;;;;;;;5003276;28;20121;-64
2023/10/08 15:39:49;;;;;;;33.15;31.38;;;;;;;;;;5002386;28;20109;-66
2023/10/08 15:42:14;;;;;;;37.15;34.55;;;;;;;;;;5002044;28;20033;-66
2023/10/08 15:44:40;;;;;;;36.17;34.28;;;;;;;;;;5002179;28;20026;-66
2023/10/08 15:47:06;;;;;;;37.90;35.90;;;;;;;;;;5004636;28;20121;-65
2023/10/08 15:49:31;;;;;;;37.20;35.20;;;;;;;;;;5003648;28;20088;-65
2023/10/08 15:51:56;;;;;;;41.45;39.28;;;;;;;;;;4986772;28;20037;-68